Terminal Aerodrome Forecast
Issued by NWS Paducah, KY

Home | Current Version | Previous Version | Text Only | Print | Product List | Glossary On
Versions: 1 2 3 4 5 6 7 8 9 10 11 12 13 14 15 16 17 18
000
FTUS43 KPAH 271700
TAFPAH
TAF
KPAH 271720Z 2718/2818 35011KT P6SM SCT015 BKN030
      TEMPO 2718/2722 BKN015
     FM280200 VRB02KT P6SM SCT030
     FM281500 13006KT P6SM SCT250=

USA.gov is the U.S. government's official web portal to all federal, state and local government web resources and services.